ΕΜΥ, Εθνική Μετεωρολογική Υπηρεσία - Δελτία Καιρού, Προγνώσεις

ΑΕΡΟΝΑΥΤΙΛΙΑ

GREEK AIRPORTS CODES

LGKP 052300Z AUTO 16004KT //// // ////// 16/12 Q1015 RE//=

EUROPEAN AIRPORTS CODES

LFPO 052300Z 33011KT 9999 FEW016 SCT030 BKN040 06/04 Q1010NOSIG=